sensor_id;sensor_type;location;lat;lon;timestamp;temperature;humidity
7894;DHT22;51343;51.396;6.656;2023-05-20T00:00:06;12.60;80.20
7894;DHT22;51343;51.396;6.656;2023-05-20T00:02:34;12.60;82.50
7894;DHT22;51343;51.396;6.656;2023-05-20T00:05:00;12.60;83.20
7894;DHT22;51343;51.396;6.656;2023-05-20T00:07:27;12.50;88.90
7894;DHT22;51343;51.396;6.656;2023-05-20T00:09:54;12.50;88.70
7894;DHT22;51343;51.396;6.656;2023-05-20T00:12:21;12.50;86.20
7894;DHT22;51343;51.396;6.656;2023-05-20T00:14:47;12.50;86.30
7894;DHT22;51343;51.396;6.656;2023-05-20T00:17:14;12.50;80.30
7894;DHT22;51343;51.396;6.656;2023-05-20T00:19:42;12.50;79.60
7894;DHT22;51343;51.396;6.656;2023-05-20T00:22:08;12.50;74.00
7894;DHT22;51343;51.396;6.656;2023-05-20T00:24:35;12.60;73.50
7894;DHT22;51343;51.396;6.656;2023-05-20T00:27:02;12.60;78.80
7894;DHT22;51343;51.396;6.656;2023-05-20T00:29:28;12.60;80.60
7894;DHT22;51343;51.396;6.656;2023-05-20T00:31:55;12.50;80.50
7894;DHT22;51343;51.396;6.656;2023-05-20T00:34:22;12.50;75.70
7894;DHT22;51343;51.396;6.656;2023-05-20T00:36:50;12.60;74.60
7894;DHT22;51343;51.396;6.656;2023-05-20T00:39:16;12.50;74.80
7894;DHT22;51343;51.396;6.656;2023-05-20T00:41:43;12.50;80.80
7894;DHT22;51343;51.396;6.656;2023-05-20T00:44:10;12.50;81.90
7894;DHT22;51343;51.396;6.656;2023-05-20T00:46:36;12.50;79.50
7894;DHT22;51343;51.396;6.656;2023-05-20T00:49:03;12.50;81.50
7894;DHT22;51343;51.396;6.656;2023-05-20T00:51:30;12.50;83.90
7894;DHT22;51343;51.396;6.656;2023-05-20T00:53:58;12.40;87.90
7894;DHT22;51343;51.396;6.656;2023-05-20T00:56:25;12.40;91.00
7894;DHT22;51343;51.396;6.656;2023-05-20T00:58:51;12.30;90.80
7894;DHT22;51343;51.396;6.656;2023-05-20T01:01:18;12.30;86.70
7894;DHT22;51343;51.396;6.656;2023-05-20T01:03:45;12.30;91.60
7894;DHT22;51343;51.396;6.656;2023-05-20T01:06:12;12.20;90.60
7894;DHT22;51343;51.396;6.656;2023-05-20T01:08:39;12.20;90.50
7894;DHT22;51343;51.396;6.656;2023-05-20T01:11:08;12.20;91.00
7894;DHT22;51343;51.396;6.656;2023-05-20T01:13:38;12.30;87.90
7894;DHT22;51343;51.396;6.656;2023-05-20T01:16:05;12.20;85.90
7894;DHT22;51343;51.396;6.656;2023-05-20T01:18:33;12.30;88.40
7894;DHT22;51343;51.396;6.656;2023-05-20T01:21:01;12.20;90.20
7894;DHT22;51343;51.396;6.656;2023-05-20T01:23:33;12.30;85.90
7894;DHT22;51343;51.396;6.656;2023-05-20T01:26:00;12.20;86.70
7894;DHT22;51343;51.396;6.656;2023-05-20T01:28:27;12.30;88.60
7894;DHT22;51343;51.396;6.656;2023-05-20T01:30:55;12.30;89.10
7894;DHT22;51343;51.396;6.656;2023-05-20T01:33:23;12.30;88.70
7894;DHT22;51343;51.396;6.656;2023-05-20T01:35:50;12.30;91.00
7894;DHT22;51343;51.396;6.656;2023-05-20T01:38:17;12.20;91.20
7894;DHT22;51343;51.396;6.656;2023-05-20T01:40:46;12.30;92.40
7894;DHT22;51343;51.396;6.656;2023-05-20T01:43:13;12.20;91.60
7894;DHT22;51343;51.396;6.656;2023-05-20T01:45:40;12.20;87.70
7894;DHT22;51343;51.396;6.656;2023-05-20T01:48:07;12.20;89.60
7894;DHT22;51343;51.396;6.656;2023-05-20T01:50:35;12.20;90.60
7894;DHT22;51343;51.396;6.656;2023-05-20T01:53:02;12.20;91.00
7894;DHT22;51343;51.396;6.656;2023-05-20T01:55:28;12.10;90.70
7894;DHT22;51343;51.396;6.656;2023-05-20T01:57:56;12.10;91.80
7894;DHT22;51343;51.396;6.656;2023-05-20T02:00:23;12.10;94.10
7894;DHT22;51343;51.396;6.656;2023-05-20T02:02:49;12.00;98.40
7894;DHT22;51343;51.396;6.656;2023-05-20T02:05:16;11.90;98.80
7894;DHT22;51343;51.396;6.656;2023-05-20T02:07:43;11.80;98.70
7894;DHT22;51343;51.396;6.656;2023-05-20T02:10:09;11.70;99.90
7894;DHT22;51343;51.396;6.656;2023-05-20T02:12:36;11.70;99.90
7894;DHT22;51343;51.396;6.656;2023-05-20T02:15:05;11.70;99.90
7894;DHT22;51343;51.396;6.656;2023-05-20T02:17:32;11.70;99.90
7894;DHT22;51343;51.396;6.656;2023-05-20T02:19:58;11.60;99.90
7894;DHT22;51343;51.396;6.656;2023-05-20T02:22:25;11.70;99.90
7894;DHT22;51343;51.396;6.656;2023-05-20T02:24:51;11.80;99.90
7894;DHT22;51343;51.396;6.656;2023-05-20T02:27:18;11.90;99.60
7894;DHT22;51343;51.396;6.656;2023-05-20T02:29:45;11.90;99.60
7894;DHT22;51343;51.396;6.656;2023-05-20T02:32:13;11.90;98.20
7894;DHT22;51343;51.396;6.656;2023-05-20T02:34:39;12.00;98.20
7894;DHT22;51343;51.396;6.656;2023-05-20T02:37:06;12.00;97.60
7894;DHT22;51343;51.396;6.656;2023-05-20T02:39:32;12.00;98.40
7894;DHT22;51343;51.396;6.656;2023-05-20T02:41:59;12.00;98.30
7894;DHT22;51343;51.396;6.656;2023-05-20T02:44:26;12.00;98.50
7894;DHT22;51343;51.396;6.656;2023-05-20T02:46:52;12.00;98.30
7894;DHT22;51343;51.396;6.656;2023-05-20T02:49:20;12.00;99.90
7894;DHT22;51343;51.396;6.656;2023-05-20T02:51:48;12.00;99.10
7894;DHT22;51343;51.396;6.656;2023-05-20T02:54:15;12.00;99.40
7894;DHT22;51343;51.396;6.656;2023-05-20T02:56:41;12.00;99.90
7894;DHT22;51343;51.396;6.656;2023-05-20T02:59:08;12.00;99.90
7894;DHT22;51343;51.396;6.656;2023-05-20T03:01:35;11.90;99.90
7894;DHT22;51343;51.396;6.656;2023-05-20T03:04:05;11.80;99.90
7894;DHT22;51343;51.396;6.656;2023-05-20T03:06:33;11.80;99.90
7894;DHT22;51343;51.396;6.656;2023-05-20T03:08:59;11.70;99.90
7894;DHT22;51343;51.396;6.656;2023-05-20T03:11:26;11.60;99.90
7894;DHT22;51343;51.396;6.656;2023-05-20T03:13:52;11.60;99.90
7894;DHT22;51343;51.396;6.656;2023-05-20T03:16:19;11.50;99.90
7894;DHT22;51343;51.396;6.656;2023-05-20T03:18:45;11.50;99.90
7894;DHT22;51343;51.396;6.656;2023-05-20T03:21:12;11.50;99.90
7894;DHT22;51343;51.396;6.656;2023-05-20T03:23:40;11.50;99.90
7894;DHT22;51343;51.396;6.656;2023-05-20T03:26:07;11.50;99.90
7894;DHT22;51343;51.396;6.656;2023-05-20T03:28:34;11.50;99.90
7894;DHT22;51343;51.396;6.656;2023-05-20T03:31:01;11.40;99.90
7894;DHT22;51343;51.396;6.656;2023-05-20T03:33:32;11.40;99.90
7894;DHT22;51343;51.396;6.656;2023-05-20T03:35:59;11.40;99.90
7894;DHT22;51343;51.396;6.656;2023-05-20T03:38:25;11.40;99.90
7894;DHT22;51343;51.396;6.656;2023-05-20T03:40:54;11.40;99.90
7894;DHT22;51343;51.396;6.656;2023-05-20T03:43:20;11.40;99.90
7894;DHT22;51343;51.396;6.656;2023-05-20T03:45:47;11.40;99.90
7894;DHT22;51343;51.396;6.656;2023-05-20T03:48:13;11.30;99.90
7894;DHT22;51343;51.396;6.656;2023-05-20T03:50:40;11.40;99.90
7894;DHT22;51343;51.396;6.656;2023-05-20T03:53:07;11.40;99.90
7894;DHT22;51343;51.396;6.656;2023-05-20T03:55:33;11.40;99.90
7894;DHT22;51343;51.396;6.656;2023-05-20T03:58:01;11.40;99.90
7894;DHT22;51343;51.396;6.656;2023-05-20T04:00:28;11.40;99.90
7894;DHT22;51343;51.396;6.656;2023-05-20T04:02:56;11.40;99.90
7894;DHT22;51343;51.396;6.656;2023-05-20T04:05:22;11.40;99.90
7894;DHT22;51343;51.396;6.656;2023-05-20T04:07:49;11.40;99.90
7894;DHT22;51343;51.396;6.656;2023-05-20T04:10:17;11.50;99.90
7894;DHT22;51343;51.396;6.656;2023-05-20T04:12:44;11.50;99.90
7894;DHT22;51343;51.396;6.656;2023-05-20T04:15:12;11.50;99.90
7894;DHT22;51343;51.396;6.656;2023-05-20T04:17:39;11.50;99.90
7894;DHT22;51343;51.396;6.656;2023-05-20T04:20:06;11.50;99.90
7894;DHT22;51343;51.396;6.656;2023-05-20T04:22:33;11.50;99.90
7894;DHT22;51343;51.396;6.656;2023-05-20T04:25:00;11.60;99.90
7894;DHT22;51343;51.396;6.656;2023-05-20T04:27:27;11.50;99.90
7894;DHT22;51343;51.396;6.656;2023-05-20T04:29:54;11.50;99.90
7894;DHT22;51343;51.396;6.656;2023-05-20T04:32:24;11.50;99.90
7894;DHT22;51343;51.396;6.656;2023-05-20T04:34:51;11.50;99.90
7894;DHT22;51343;51.396;6.656;2023-05-20T04:37:18;11.50;99.90
7894;DHT22;51343;51.396;6.656;2023-05-20T04:39:45;11.50;99.90
7894;DHT22;51343;51.396;6.656;2023-05-20T04:42:14;11.50;99.90
7894;DHT22;51343;51.396;6.656;2023-05-20T04:44:42;11.50;99.90
7894;DHT22;51343;51.396;6.656;2023-05-20T04:47:10;11.60;99.90
7894;DHT22;51343;51.396;6.656;2023-05-20T04:49:38;11.60;99.90
7894;DHT22;51343;51.396;6.656;2023-05-20T04:52:05;11.60;99.90
7894;DHT22;51343;51.396;6.656;2023-05-20T04:54:31;11.70;99.90
7894;DHT22;51343;51.396;6.656;2023-05-20T04:56:58;11.60;99.90
7894;DHT22;51343;51.396;6.656;2023-05-20T04:59:25;11.70;99.90
7894;DHT22;51343;51.396;6.656;2023-05-20T05:01:52;11.80;99.90
7894;DHT22;51343;51.396;6.656;2023-05-20T05:04:18;11.80;99.90
7894;DHT22;51343;51.396;6.656;2023-05-20T05:06:47;11.90;99.90
7894;DHT22;51343;51.396;6.656;2023-05-20T05:09:14;12.00;99.90
7894;DHT22;51343;51.396;6.656;2023-05-20T05:11:41;12.10;99.90
7894;DHT22;51343;51.396;6.656;2023-05-20T05:14:08;12.20;99.90
7894;DHT22;51343;51.396;6.656;2023-05-20T05:16:34;12.20;99.90
7894;DHT22;51343;51.396;6.656;2023-05-20T05:19:01;12.30;99.90
7894;DHT22;51343;51.396;6.656;2023-05-20T05:21:27;12.40;99.90
7894;DHT22;51343;51.396;6.656;2023-05-20T05:23:56;12.40;99.90
7894;DHT22;51343;51.396;6.656;2023-05-20T05:26:22;12.50;99.90
7894;DHT22;51343;51.396;6.656;2023-05-20T05:28:49;12.60;99.90
7894;DHT22;51343;51.396;6.656;2023-05-20T05:31:16;12.70;99.90
7894;DHT22;51343;51.396;6.656;2023-05-20T05:33:42;12.80;99.90
7894;DHT22;51343;51.396;6.656;2023-05-20T05:36:09;12.90;99.90
7894;DHT22;51343;51.396;6.656;2023-05-20T05:38:35;13.00;99.90
7894;DHT22;51343;51.396;6.656;2023-05-20T05:41:03;13.10;99.90
7894;DHT22;51343;51.396;6.656;2023-05-20T05:43:30;13.10;99.90
7894;DHT22;51343;51.396;6.656;2023-05-20T05:45:56;13.20;99.90
7894;DHT22;51343;51.396;6.656;2023-05-20T05:48:23;13.30;99.90
7894;DHT22;51343;51.396;6.656;2023-05-20T05:50:50;13.50;99.90
7894;DHT22;51343;51.396;6.656;2023-05-20T05:53:16;13.50;99.90
7894;DHT22;51343;51.396;6.656;2023-05-20T05:55:46;13.60;99.90
7894;DHT22;51343;51.396;6.656;2023-05-20T05:58:14;13.70;99.90
7894;DHT22;51343;51.396;6.656;2023-05-20T06:00:41;13.70;99.90
7894;DHT22;51343;51.396;6.656;2023-05-20T06:03:08;13.80;99.90
7894;DHT22;51343;51.396;6.656;2023-05-20T06:05:35;13.90;98.90
7894;DHT22;51343;51.396;6.656;2023-05-20T06:08:01;14.00;97.20
7894;DHT22;51343;51.396;6.656;2023-05-20T06:10:28;14.00;98.90
7894;DHT22;51343;51.396;6.656;2023-05-20T06:12:55;14.10;97.20
7894;DHT22;51343;51.396;6.656;2023-05-20T06:15:23;14.20;98.30
7894;DHT22;51343;51.396;6.656;2023-05-20T06:17:50;14.30;97.00
7894;DHT22;51343;51.396;6.656;2023-05-20T06:20:16;14.30;95.80
7894;DHT22;51343;51.396;6.656;2023-05-20T06:22:43;14.40;92.30
7894;DHT22;51343;51.396;6.656;2023-05-20T06:25:10;14.40;91.70
7894;DHT22;51343;51.396;6.656;2023-05-20T06:27:36;14.50;93.20
7894;DHT22;51343;51.396;6.656;2023-05-20T06:30:03;14.50;92.70
7894;DHT22;51343;51.396;6.656;2023-05-20T06:32:31;14.60;92.80
7894;DHT22;51343;51.396;6.656;2023-05-20T06:34:58;14.70;91.50
7894;DHT22;51343;51.396;6.656;2023-05-20T06:37:25;14.80;90.10
7894;DHT22;51343;51.396;6.656;2023-05-20T06:39:51;14.80;88.40
7894;DHT22;51343;51.396;6.656;2023-05-20T06:42:19;15.00;91.30
7894;DHT22;51343;51.396;6.656;2023-05-20T06:44:46;15.00;90.40
7894;DHT22;51343;51.396;6.656;2023-05-20T06:47:13;15.10;89.10
7894;DHT22;51343;51.396;6.656;2023-05-20T06:49:41;15.10;87.40
7894;DHT22;51343;51.396;6.656;2023-05-20T06:52:07;15.10;86.90
7894;DHT22;51343;51.396;6.656;2023-05-20T06:54:34;15.10;82.60
7894;DHT22;51343;51.396;6.656;2023-05-20T06:57:04;15.10;81.30
7894;DHT22;51343;51.396;6.656;2023-05-20T06:59:31;15.00;78.10
7894;DHT22;51343;51.396;6.656;2023-05-20T07:01:57;15.10;82.70
7894;DHT22;51343;51.396;6.656;2023-05-20T07:04:24;15.10;84.50
7894;DHT22;51343;51.396;6.656;2023-05-20T07:06:54;15.10;77.60
7894;DHT22;51343;51.396;6.656;2023-05-20T07:09:21;15.00;78.40
7894;DHT22;51343;51.396;6.656;2023-05-20T07:11:47;15.00;75.60
7894;DHT22;51343;51.396;6.656;2023-05-20T07:14:14;15.10;79.70
7894;DHT22;51343;51.396;6.656;2023-05-20T07:16:41;15.10;75.60
7894;DHT22;51343;51.396;6.656;2023-05-20T07:19:08;15.30;79.50
7894;DHT22;51343;51.396;6.656;2023-05-20T07:21:34;15.40;74.20
7894;DHT22;51343;51.396;6.656;2023-05-20T07:24:02;15.60;74.50
7894;DHT22;51343;51.396;6.656;2023-05-20T07:26:29;15.60;74.30
7894;DHT22;51343;51.396;6.656;2023-05-20T07:28:58;15.60;72.90
7894;DHT22;51343;51.396;6.656;2023-05-20T07:31:24;15.70;69.30
7894;DHT22;51343;51.396;6.656;2023-05-20T07:33:51;15.70;60.20
7894;DHT22;51343;51.396;6.656;2023-05-20T07:36:17;15.60;70.00
7894;DHT22;51343;51.396;6.656;2023-05-20T07:38:44;15.70;65.60
7894;DHT22;51343;51.396;6.656;2023-05-20T07:41:12;15.70;65.20
7894;DHT22;51343;51.396;6.656;2023-05-20T07:43:39;15.80;73.50
7894;DHT22;51343;51.396;6.656;2023-05-20T07:46:05;15.80;66.30
7894;DHT22;51343;51.396;6.656;2023-05-20T07:48:32;15.90;61.70
7894;DHT22;51343;51.396;6.656;2023-05-20T07:50:58;16.10;65.90
7894;DHT22;51343;51.396;6.656;2023-05-20T07:53:25;16.20;63.50
7894;DHT22;51343;51.396;6.656;2023-05-20T07:55:51;16.20;61.60
7894;DHT22;51343;51.396;6.656;2023-05-20T07:58:19;16.20;52.10
7894;DHT22;51343;51.396;6.656;2023-05-20T08:00:46;16.10;52.10
7894;DHT22;51343;51.396;6.656;2023-05-20T08:03:13;16.20;58.80
7894;DHT22;51343;51.396;6.656;2023-05-20T08:05:39;16.10;56.80
7894;DHT22;51343;51.396;6.656;2023-05-20T08:08:06;16.20;58.40
7894;DHT22;51343;51.396;6.656;2023-05-20T08:10:34;16.20;61.60
7894;DHT22;51343;51.396;6.656;2023-05-20T08:13:01;16.30;58.90
7894;DHT22;51343;51.396;6.656;2023-05-20T08:15:29;16.40;60.90
7894;DHT22;51343;51.396;6.656;2023-05-20T08:17:55;16.40;61.80
7894;DHT22;51343;51.396;6.656;2023-05-20T08:20:22;16.40;56.70
7894;DHT22;51343;51.396;6.656;2023-05-20T08:22:50;16.40;59.90
7894;DHT22;51343;51.396;6.656;2023-05-20T08:25:17;16.40;52.80
7894;DHT22;51343;51.396;6.656;2023-05-20T08:27:44;16.30;61.60
7894;DHT22;51343;51.396;6.656;2023-05-20T08:30:11;16.30;57.90
7894;DHT22;51343;51.396;6.656;2023-05-20T08:32:39;16.20;55.50
7894;DHT22;51343;51.396;6.656;2023-05-20T08:35:06;16.10;55.30
7894;DHT22;51343;51.396;6.656;2023-05-20T08:37:32;16.30;57.20
7894;DHT22;51343;51.396;6.656;2023-05-20T08:39:59;16.20;62.00
7894;DHT22;51343;51.396;6.656;2023-05-20T08:42:26;16.30;58.90
7894;DHT22;51343;51.396;6.656;2023-05-20T08:44:53;16.30;58.90
7894;DHT22;51343;51.396;6.656;2023-05-20T08:47:19;16.30;60.50
7894;DHT22;51343;51.396;6.656;2023-05-20T08:49:48;16.30;59.60
7894;DHT22;51343;51.396;6.656;2023-05-20T08:52:15;16.40;56.70
7894;DHT22;51343;51.396;6.656;2023-05-20T08:54:43;16.40;56.10
7894;DHT22;51343;51.396;6.656;2023-05-20T08:57:10;16.40;56.70
7894;DHT22;51343;51.396;6.656;2023-05-20T08:59:39;16.50;56.40
7894;DHT22;51343;51.396;6.656;2023-05-20T09:02:06;16.70;51.00
7894;DHT22;51343;51.396;6.656;2023-05-20T09:04:32;16.80;55.90
7894;DHT22;51343;51.396;6.656;2023-05-20T09:07:00;17.00;49.20
7894;DHT22;51343;51.396;6.656;2023-05-20T09:09:27;16.80;55.80
7894;DHT22;51343;51.396;6.656;2023-05-20T09:11:54;16.90;53.90
7894;DHT22;51343;51.396;6.656;2023-05-20T09:14:21;17.00;56.60
7894;DHT22;51343;51.396;6.656;2023-05-20T09:16:51;17.00;55.50
7894;DHT22;51343;51.396;6.656;2023-05-20T09:19:18;17.10;53.40
7894;DHT22;51343;51.396;6.656;2023-05-20T09:21:45;17.10;53.00
7894;DHT22;51343;51.396;6.656;2023-05-20T09:24:13;17.20;54.60
7894;DHT22;51343;51.396;6.656;2023-05-20T09:26:40;17.30;54.30
7894;DHT22;51343;51.396;6.656;2023-05-20T09:29:06;17.20;55.30
7894;DHT22;51343;51.396;6.656;2023-05-20T09:31:34;17.10;50.00
7894;DHT22;51343;51.396;6.656;2023-05-20T09:34:02;17.20;50.50
7894;DHT22;51343;51.396;6.656;2023-05-20T09:36:29;17.40;52.10
7894;DHT22;51343;51.396;6.656;2023-05-20T09:38:59;17.60;48.60
7894;DHT22;51343;51.396;6.656;2023-05-20T09:41:32;17.70;47.20
7894;DHT22;51343;51.396;6.656;2023-05-20T09:43:59;17.80;44.80
7894;DHT22;51343;51.396;6.656;2023-05-20T09:46:26;17.90;43.20
7894;DHT22;51343;51.396;6.656;2023-05-20T09:48:53;17.90;45.20
7894;DHT22;51343;51.396;6.656;2023-05-20T09:51:20;17.80;44.90
7894;DHT22;51343;51.396;6.656;2023-05-20T09:53:47;17.80;45.30
7894;DHT22;51343;51.396;6.656;2023-05-20T09:56:14;18.10;48.60
7894;DHT22;51343;51.396;6.656;2023-05-20T09:58:42;18.20;42.40
7894;DHT22;51343;51.396;6.656;2023-05-20T10:01:09;18.40;40.80
7894;DHT22;51343;51.396;6.656;2023-05-20T10:03:36;18.30;38.20
7894;DHT22;51343;51.396;6.656;2023-05-20T10:11:41;18.20;31.80
7894;DHT22;51343;51.396;6.656;2023-05-20T10:14:18;18.20;38.60
7894;DHT22;51343;51.396;6.656;2023-05-20T10:16:49;18.70;38.00
7894;DHT22;51343;51.396;6.656;2023-05-20T10:19:21;19.10;28.40
7894;DHT22;51343;51.396;6.656;2023-05-20T10:21:57;19.10;34.00
7894;DHT22;51343;51.396;6.656;2023-05-20T10:24:28;19.30;33.70
7894;DHT22;51343;51.396;6.656;2023-05-20T10:26:56;19.10;26.80
7894;DHT22;51343;51.396;6.656;2023-05-20T10:29:24;19.10;27.90
7894;DHT22;51343;51.396;6.656;2023-05-20T10:31:51;19.10;41.00
7894;DHT22;51343;51.396;6.656;2023-05-20T10:34:18;19.40;30.50
7894;DHT22;51343;51.396;6.656;2023-05-20T10:36:45;19.20;18.80
7894;DHT22;51343;51.396;6.656;2023-05-20T10:39:24;18.90;24.00
7894;DHT22;51343;51.396;6.656;2023-05-20T10:41:51;18.70;22.80
7894;DHT22;51343;51.396;6.656;2023-05-20T10:44:18;18.50;25.10
7894;DHT22;51343;51.396;6.656;2023-05-20T10:46:46;18.60;29.80
7894;DHT22;51343;51.396;6.656;2023-05-20T10:49:31;18.80;41.40
7894;DHT22;51343;51.396;6.656;2023-05-20T10:51:58;18.70;30.80
7894;DHT22;51343;51.396;6.656;2023-05-20T10:54:25;18.50;25.80
7894;DHT22;51343;51.396;6.656;2023-05-20T10:56:53;18.30;27.70
7894;DHT22;51343;51.396;6.656;2023-05-20T10:59:20;18.20;29.90
7894;DHT22;51343;51.396;6.656;2023-05-20T11:01:48;18.20;34.30
7894;DHT22;51343;51.396;6.656;2023-05-20T11:04:15;18.10;37.10
7894;DHT22;51343;51.396;6.656;2023-05-20T11:06:48;18.30;36.20
7894;DHT22;51343;51.396;6.656;2023-05-20T11:09:15;18.60;40.60
7894;DHT22;51343;51.396;6.656;2023-05-20T11:11:41;18.90;29.60
7894;DHT22;51343;51.396;6.656;2023-05-20T11:14:08;18.90;26.50
7894;DHT22;51343;51.396;6.656;2023-05-20T11:16:37;18.60;31.70
7894;DHT22;51343;51.396;6.656;2023-05-20T11:19:07;18.40;29.10
7894;DHT22;51343;51.396;6.656;2023-05-20T11:21:34;18.10;33.90
7894;DHT22;51343;51.396;6.656;2023-05-20T11:24:00;18.30;35.90
7894;DHT22;51343;51.396;6.656;2023-05-20T11:26:27;18.40;43.50
7894;DHT22;51343;51.396;6.656;2023-05-20T11:28:54;18.40;32.20
7894;DHT22;51343;51.396;6.656;2023-05-20T11:31:21;18.40;33.80
7894;DHT22;51343;51.396;6.656;2023-05-20T11:33:50;18.50;47.40
7894;DHT22;51343;51.396;6.656;2023-05-20T11:36:18;18.50;36.40
7894;DHT22;51343;51.396;6.656;2023-05-20T11:38:46;18.40;29.90
7894;DHT22;51343;51.396;6.656;2023-05-20T11:41:13;18.50;40.10
7894;DHT22;51343;51.396;6.656;2023-05-20T11:43:39;18.40;32.90
7894;DHT22;51343;51.396;6.656;2023-05-20T11:46:07;18.20;36.80
7894;DHT22;51343;51.396;6.656;2023-05-20T11:48:34;18.20;44.20
7894;DHT22;51343;51.396;6.656;2023-05-20T11:51:01;18.40;37.70
7894;DHT22;51343;51.396;6.656;2023-05-20T11:53:29;18.60;35.40
7894;DHT22;51343;51.396;6.656;2023-05-20T11:55:56;18.70;35.70
7894;DHT22;51343;51.396;6.656;2023-05-20T11:58:24;18.70;36.00
7894;DHT22;51343;51.396;6.656;2023-05-20T12:00:51;18.90;30.30
7894;DHT22;51343;51.396;6.656;2023-05-20T12:03:17;19.10;34.70
7894;DHT22;51343;51.396;6.656;2023-05-20T12:05:44;19.40;31.80
7894;DHT22;51343;51.396;6.656;2023-05-20T12:08:12;19.50;28.90
7894;DHT22;51343;51.396;6.656;2023-05-20T12:10:39;20.00;26.90
7894;DHT22;51343;51.396;6.656;2023-05-20T12:13:06;19.90;22.90
7894;DHT22;51343;51.396;6.656;2023-05-20T12:15:35;19.80;28.30
7894;DHT22;51343;51.396;6.656;2023-05-20T12:18:01;19.70;28.70
7894;DHT22;51343;51.396;6.656;2023-05-20T12:20:28;19.80;27.00
7894;DHT22;51343;51.396;6.656;2023-05-20T12:22:55;19.80;22.10
7894;DHT22;51343;51.396;6.656;2023-05-20T12:25:24;19.80;26.70
7894;DHT22;51343;51.396;6.656;2023-05-20T12:27:52;19.80;27.20
7894;DHT22;51343;51.396;6.656;2023-05-20T12:30:19;19.90;26.70
7894;DHT22;51343;51.396;6.656;2023-05-20T12:32:47;20.00;25.10
7894;DHT22;51343;51.396;6.656;2023-05-20T12:35:15;20.00;25.30
7894;DHT22;51343;51.396;6.656;2023-05-20T12:37:42;20.10;21.90
7894;DHT22;51343;51.396;6.656;2023-05-20T12:40:10;20.10;22.60
7894;DHT22;51343;51.396;6.656;2023-05-20T12:42:37;20.30;23.90
7894;DHT22;51343;51.396;6.656;2023-05-20T12:45:06;20.40;19.00
7894;DHT22;51343;51.396;6.656;2023-05-20T12:47:33;20.50;28.50
7894;DHT22;51343;51.396;6.656;2023-05-20T12:50:00;20.80;26.80
7894;DHT22;51343;51.396;6.656;2023-05-20T12:52:27;20.80;17.60
7894;DHT22;51343;51.396;6.656;2023-05-20T12:54:54;20.60;12.40
7894;DHT22;51343;51.396;6.656;2023-05-20T12:57:21;20.50;13.90
7894;DHT22;51343;51.396;6.656;2023-05-20T12:59:48;20.70;13.90
7894;DHT22;51343;51.396;6.656;2023-05-20T13:02:16;20.60;13.60
7894;DHT22;51343;51.396;6.656;2023-05-20T13:04:43;20.50;15.90
7894;DHT22;51343;51.396;6.656;2023-05-20T13:07:09;20.60;16.20
7894;DHT22;51343;51.396;6.656;2023-05-20T13:09:36;20.70;7.40
7894;DHT22;51343;51.396;6.656;2023-05-20T13:12:03;20.60;7.40
7894;DHT22;51343;51.396;6.656;2023-05-20T13:14:29;20.50;9.00
7894;DHT22;51343;51.396;6.656;2023-05-20T13:16:56;20.70;16.50
7894;DHT22;51343;51.396;6.656;2023-05-20T13:19:24;20.80;13.90
7894;DHT22;51343;51.396;6.656;2023-05-20T13:21:50;20.90;2.80
7894;DHT22;51343;51.396;6.656;2023-05-20T13:24:18;20.80;3.50
7894;DHT22;51343;51.396;6.656;2023-05-20T13:26:45;20.70;4.00
7894;DHT22;51343;51.396;6.656;2023-05-20T13:29:11;20.80;5.10
7894;DHT22;51343;51.396;6.656;2023-05-20T13:31:38;20.90;8.40
7894;DHT22;51343;51.396;6.656;2023-05-20T13:34:05;20.90;6.10
7894;DHT22;51343;51.396;6.656;2023-05-20T13:36:33;20.70;3.10
7894;DHT22;51343;51.396;6.656;2023-05-20T13:38:59;20.90;1.20
7894;DHT22;51343;51.396;6.656;2023-05-20T13:41:26;20.70;3.00
7894;DHT22;51343;51.396;6.656;2023-05-20T13:43:54;20.80;3.80
7894;DHT22;51343;51.396;6.656;2023-05-20T13:46:20;20.90;2.70
7894;DHT22;51343;51.396;6.656;2023-05-20T13:48:47;20.90;3.00
7894;DHT22;51343;51.396;6.656;2023-05-20T13:51:13;20.80;1.00
7894;DHT22;51343;51.396;6.656;2023-05-20T13:53:41;20.60;3.70
7894;DHT22;51343;51.396;6.656;2023-05-20T13:56:08;20.60;2.90
7894;DHT22;51343;51.396;6.656;2023-05-20T13:58:35;20.70;3.50
7894;DHT22;51343;51.396;6.656;2023-05-20T14:01:01;20.50;2.80
7894;DHT22;51343;51.396;6.656;2023-05-20T14:03:29;20.50;2.30
7894;DHT22;51343;51.396;6.656;2023-05-20T14:05:55;20.60;1.00
7894;DHT22;51343;51.396;6.656;2023-05-20T14:08:22;20.70;1.10
7894;DHT22;51343;51.396;6.656;2023-05-20T14:10:50;20.70;1.00
7894;DHT22;51343;51.396;6.656;2023-05-20T14:13:19;20.60;3.60
7894;DHT22;51343;51.396;6.656;2023-05-20T14:15:45;20.50;1.80
7894;DHT22;51343;51.396;6.656;2023-05-20T14:18:12;20.30;1.60
7894;DHT22;51343;51.396;6.656;2023-05-20T14:20:38;20.10;9.60
7894;DHT22;51343;51.396;6.656;2023-05-20T14:23:05;19.90;6.50
7894;DHT22;51343;51.396;6.656;2023-05-20T14:25:31;19.90;7.90
7894;DHT22;51343;51.396;6.656;2023-05-20T14:27:59;19.90;10.90
7894;DHT22;51343;51.396;6.656;2023-05-20T14:30:26;19.80;6.90
7894;DHT22;51343;51.396;6.656;2023-05-20T14:32:56;19.80;6.40
7894;DHT22;51343;51.396;6.656;2023-05-20T14:35:22;19.90;6.10
7894;DHT22;51343;51.396;6.656;2023-05-20T14:37:49;19.90;8.70
7894;DHT22;51343;51.396;6.656;2023-05-20T14:40:16;20.00;5.60
7894;DHT22;51343;51.396;6.656;2023-05-20T14:42:43;19.90;3.20
7894;DHT22;51343;51.396;6.656;2023-05-20T14:45:11;19.90;2.00
7894;DHT22;51343;51.396;6.656;2023-05-20T14:47:37;20.10;1.00
7894;DHT22;51343;51.396;6.656;2023-05-20T14:50:05;20.10;1.50
7894;DHT22;51343;51.396;6.656;2023-05-20T14:52:32;20.00;3.10
7894;DHT22;51343;51.396;6.656;2023-05-20T14:54:58;20.00;1.00
7894;DHT22;51343;51.396;6.656;2023-05-20T14:57:25;20.00;1.00
7894;DHT22;51343;51.396;6.656;2023-05-20T14:59:51;20.10;5.00
7894;DHT22;51343;51.396;6.656;2023-05-20T15:02:19;20.30;1.00
7894;DHT22;51343;51.396;6.656;2023-05-20T15:04:46;20.40;1.00
7894;DHT22;51343;51.396;6.656;2023-05-20T15:07:13;20.50;1.00
7894;DHT22;51343;51.396;6.656;2023-05-20T15:09:39;20.50;1.00
7894;DHT22;51343;51.396;6.656;2023-05-20T15:12:06;20.50;1.00
7894;DHT22;51343;51.396;6.656;2023-05-20T15:14:33;20.50;1.00
7894;DHT22;51343;51.396;6.656;2023-05-20T15:16:59;20.50;1.00
7894;DHT22;51343;51.396;6.656;2023-05-20T15:19:27;20.50;1.00
7894;DHT22;51343;51.396;6.656;2023-05-20T15:21:54;20.50;1.00
7894;DHT22;51343;51.396;6.656;2023-05-20T15:24:20;20.40;1.00
7894;DHT22;51343;51.396;6.656;2023-05-20T15:26:47;20.50;1.00
7894;DHT22;51343;51.396;6.656;2023-05-20T15:29:14;20.40;1.00
7894;DHT22;51343;51.396;6.656;2023-05-20T15:31:40;20.40;1.00
7894;DHT22;51343;51.396;6.656;2023-05-20T15:34:07;20.30;1.00
7894;DHT22;51343;51.396;6.656;2023-05-20T15:36:35;20.20;1.00
7894;DHT22;51343;51.396;6.656;2023-05-20T15:39:02;19.80;1.00
7894;DHT22;51343;51.396;6.656;2023-05-20T15:41:29;19.70;1.00
7894;DHT22;51343;51.396;6.656;2023-05-20T15:43:56;20.20;1.00
7894;DHT22;51343;51.396;6.656;2023-05-20T15:46:23;20.60;1.00
7894;DHT22;51343;51.396;6.656;2023-05-20T15:48:49;20.70;1.00
7894;DHT22;51343;51.396;6.656;2023-05-20T15:51:19;20.70;1.00
7894;DHT22;51343;51.396;6.656;2023-05-20T15:53:47;20.80;1.00